sensor_id;sensor_type;location;lat;lon;timestamp;temperature;humidity
50690;DHT22;71367;48.298;11.238;2024-01-11T00:10:22;-5.30;99.90
50690;DHT22;71367;48.298;11.238;2024-01-11T00:25:28;-5.40;99.90
50690;DHT22;71367;48.298;11.238;2024-01-11T00:40:32;-5.30;99.90
50690;DHT22;71367;48.298;11.238;2024-01-11T00:55:36;-5.40;99.90
50690;DHT22;71367;48.298;11.238;2024-01-11T01:10:40;-5.50;99.90
50690;DHT22;71367;48.298;11.238;2024-01-11T01:25:44;-5.50;99.90
50690;DHT22;71367;48.298;11.238;2024-01-11T01:40:47;-5.60;99.90
50690;DHT22;71367;48.298;11.238;2024-01-11T01:55:52;-5.80;99.90
50690;DHT22;71367;48.298;11.238;2024-01-11T02:10:56;-5.80;99.90
50690;DHT22;71367;48.298;11.238;2024-01-11T02:26:00;-5.80;99.90
50690;DHT22;71367;48.298;11.238;2024-01-11T02:41:05;-5.90;99.90
50690;DHT22;71367;48.298;11.238;2024-01-11T02:56:08;-6.20;99.90
50690;DHT22;71367;48.298;11.238;2024-01-11T03:11:11;-6.20;99.90
50690;DHT22;71367;48.298;11.238;2024-01-11T03:26:16;-6.10;99.90
50690;DHT22;71367;48.298;11.238;2024-01-11T03:41:19;-6.10;99.90
50690;DHT22;71367;48.298;11.238;2024-01-11T03:56:22;-6.00;99.90
50690;DHT22;71367;48.298;11.238;2024-01-11T04:11:28;-6.00;99.90
50690;DHT22;71367;48.298;11.238;2024-01-11T04:26:32;-6.00;99.90
50690;DHT22;71367;48.298;11.238;2024-01-11T04:41:35;-6.00;99.90
50690;DHT22;71367;48.298;11.238;2024-01-11T04:56:39;-6.30;99.90
50690;DHT22;71367;48.298;11.238;2024-01-11T05:11:42;-6.30;99.90
50690;DHT22;71367;48.298;11.238;2024-01-11T05:26:47;-6.20;99.90
50690;DHT22;71367;48.298;11.238;2024-01-11T05:41:50;-6.30;99.90
50690;DHT22;71367;48.298;11.238;2024-01-11T05:56:54;-6.50;99.90
50690;DHT22;71367;48.298;11.238;2024-01-11T06:12:00;-6.40;99.90
50690;DHT22;71367;48.298;11.238;2024-01-11T06:27:03;-6.40;99.90
50690;DHT22;71367;48.298;11.238;2024-01-11T06:42:06;-6.50;99.90
50690;DHT22;71367;48.298;11.238;2024-01-11T06:57:10;-6.30;99.90
50690;DHT22;71367;48.298;11.238;2024-01-11T07:12:14;-6.30;99.90
50690;DHT22;71367;48.298;11.238;2024-01-11T07:27:17;-6.40;99.90
50690;DHT22;71367;48.298;11.238;2024-01-11T07:42:21;-6.40;99.90
50690;DHT22;71367;48.298;11.238;2024-01-11T07:57:25;-6.30;99.90
50690;DHT22;71367;48.298;11.238;2024-01-11T08:12:31;-6.00;99.90
50690;DHT22;71367;48.298;11.238;2024-01-11T08:27:36;-6.10;99.90
50690;DHT22;71367;48.298;11.238;2024-01-11T08:42:39;-5.70;99.90
50690;DHT22;71367;48.298;11.238;2024-01-11T08:57:43;-5.60;99.90
50690;DHT22;71367;48.298;11.238;2024-01-11T09:12:46;-6.10;99.90
50690;DHT22;71367;48.298;11.238;2024-01-11T09:27:50;-5.90;99.90
50690;DHT22;71367;48.298;11.238;2024-01-11T09:42:54;-5.60;99.90
50690;DHT22;71367;48.298;11.238;2024-01-11T09:57:59;-4.70;99.90
50690;DHT22;71367;48.298;11.238;2024-01-11T10:13:04;-4.00;99.90
50690;DHT22;71367;48.298;11.238;2024-01-11T10:28:08;-3.70;99.90
50690;DHT22;71367;48.298;11.238;2024-01-11T10:43:15;-3.30;99.90
50690;DHT22;71367;48.298;11.238;2024-01-11T10:58:21;-3.00;99.90
50690;DHT22;71367;48.298;11.238;2024-01-11T11:13:25;-2.40;99.90
50690;DHT22;71367;48.298;11.238;2024-01-11T11:28:30;-2.20;99.90
50690;DHT22;71367;48.298;11.238;2024-01-11T11:43:52;-2.10;99.90
50690;DHT22;71367;48.298;11.238;2024-01-11T11:58:56;-2.50;99.90
50690;DHT22;71367;48.298;11.238;2024-01-11T12:14:00;-2.90;99.90
50690;DHT22;71367;48.298;11.238;2024-01-11T12:29:03;-3.10;99.90
50690;DHT22;71367;48.298;11.238;2024-01-11T12:44:07;-3.00;99.90
50690;DHT22;71367;48.298;11.238;2024-01-11T12:59:12;-3.30;99.90
50690;DHT22;71367;48.298;11.238;2024-01-11T13:14:18;-2.20;99.90
50690;DHT22;71367;48.298;11.238;2024-01-11T13:29:21;-3.00;99.90
50690;DHT22;71367;48.298;11.238;2024-01-11T13:44:25;-2.70;99.90
50690;DHT22;71367;48.298;11.238;2024-01-11T13:59:29;-3.20;99.90
50690;DHT22;71367;48.298;11.238;2024-01-11T14:14:32;-3.00;99.90
50690;DHT22;71367;48.298;11.238;2024-01-11T14:44:52;-2.30;99.90
50690;DHT22;71367;48.298;11.238;2024-01-11T15:15:19;-2.80;99.90
50690;DHT22;71367;48.298;11.238;2024-01-11T15:30:22;-2.90;99.90
50690;DHT22;71367;48.298;11.238;2024-01-11T15:45:26;-3.20;99.90
50690;DHT22;71367;48.298;11.238;2024-01-11T16:00:29;-3.40;99.90
50690;DHT22;71367;48.298;11.238;2024-01-11T16:15:35;-3.50;99.90
50690;DHT22;71367;48.298;11.238;2024-01-11T16:30:38;-3.60;99.90
50690;DHT22;71367;48.298;11.238;2024-01-11T16:45:41;-3.70;99.90
50690;DHT22;71367;48.298;11.238;2024-01-11T17:00:45;-4.00;99.90
50690;DHT22;71367;48.298;11.238;2024-01-11T17:15:48;-4.10;99.90
50690;DHT22;71367;48.298;11.238;2024-01-11T17:30:51;-4.20;99.90
50690;DHT22;71367;48.298;11.238;2024-01-11T17:45:55;-4.40;99.90
50690;DHT22;71367;48.298;11.238;2024-01-11T18:00:59;-4.50;99.90
50690;DHT22;71367;48.298;11.238;2024-01-11T18:16:03;-4.60;99.90
50690;DHT22;71367;48.298;11.238;2024-01-11T18:31:07;-4.70;99.90
50690;DHT22;71367;48.298;11.238;2024-01-11T18:46:10;-4.70;99.90
50690;DHT22;71367;48.298;11.238;2024-01-11T19:01:14;-4.80;99.90
50690;DHT22;71367;48.298;11.238;2024-01-11T19:16:17;-5.10;99.90
50690;DHT22;71367;48.298;11.238;2024-01-11T19:31:20;-5.00;99.90
50690;DHT22;71367;48.298;11.238;2024-01-11T19:46:24;-5.00;99.90
50690;DHT22;71367;48.298;11.238;2024-01-11T20:01:28;-5.00;99.90
50690;DHT22;71367;48.298;11.238;2024-01-11T20:16:31;-5.00;99.90
50690;DHT22;71367;48.298;11.238;2024-01-11T20:31:35;-5.10;99.90
50690;DHT22;71367;48.298;11.238;2024-01-11T20:46:39;-5.20;99.90
50690;DHT22;71367;48.298;11.238;2024-01-11T21:01:43;-5.40;99.90
50690;DHT22;71367;48.298;11.238;2024-01-11T21:16:47;-5.50;99.90
50690;DHT22;71367;48.298;11.238;2024-01-11T21:31:51;-5.40;99.90
50690;DHT22;71367;48.298;11.238;2024-01-11T21:46:54;-5.40;99.90
50690;DHT22;71367;48.298;11.238;2024-01-11T22:01:57;-5.40;99.90
50690;DHT22;71367;48.298;11.238;2024-01-11T22:17:02;-5.30;99.90
50690;DHT22;71367;48.298;11.238;2024-01-11T22:32:06;-5.30;99.90
50690;DHT22;71367;48.298;11.238;2024-01-11T22:47:09;-5.30;99.90
50690;DHT22;71367;48.298;11.238;2024-01-11T23:02:12;-5.20;99.90
50690;DHT22;71367;48.298;11.238;2024-01-11T23:17:16;-5.20;99.90
50690;DHT22;71367;48.298;11.238;2024-01-11T23:32:23;-5.20;99.90
50690;DHT22;71367;48.298;11.238;2024-01-11T23:47:28;-5.10;99.90
